Time;durP1;ratioP1;P1;durP2;ratioP2;P2;SDS_P1;SDS_P2;PMS_P1;PMS_P2;Temp;Humidity;BMP_temperature;BMP_pressure;BME280_temperature;BME280_humidity;BME280_pressure;Samples;Min_cycle;Max_cycle;Signal;HPM_P1;HPM_P2
2021/07/08 00:00:20;;;;;;;;;;;16.60;99.90;;;;;;5045697;28;19925;-62
2021/07/08 00:03:14;;;;;;;;;;;16.60;99.90;;;;;;5050698;28;19960;-62
2021/07/08 00:06:03;;;;;;;;;;;16.60;99.90;;;;;;5048507;28;19925;-63
2021/07/08 00:08:53;;;;;;;;;;;16.60;99.90;;;;;;5049457;28;20083;-62
2021/07/08 00:12:07;;;;;;;;;;;16.60;99.90;;;;;;5045670;28;19940;-62
2021/07/08 00:15:21;;;;;;;;;;;16.60;99.90;;;;;;5042840;28;19925;-62
2021/07/08 00:18:11;;;;;;;;;;;16.50;99.90;;;;;;5040195;28;19929;-62
2021/07/08 00:20:59;;;;;;;;;;;16.50;99.90;;;;;;5052571;28;19978;-62
2021/07/08 00:23:48;;;;;;;;;;;16.50;99.90;;;;;;5048092;28;19925;-62
2021/07/08 00:26:38;;;;;;;;;;;16.60;99.90;;;;;;5047304;28;19925;-62
2021/07/08 00:29:26;;;;;;;;;;;16.50;99.90;;;;;;5049456;28;19955;-64
2021/07/08 00:32:42;;;;;;;;;;;16.50;99.90;;;;;;5046159;28;19940;-62
2021/07/08 00:35:31;;;;;;;;;;;16.50;99.90;;;;;;5044805;28;20071;-62
2021/07/08 00:38:20;;;;;;;;;;;16.60;99.90;;;;;;5051685;28;19925;-62
2021/07/08 00:41:09;;;;;;;;;;;16.60;99.90;;;;;;5050021;28;19935;-62
2021/07/08 00:43:59;;;;;;;;;;;16.60;99.90;;;;;;5051287;28;19929;-62
2021/07/08 00:46:47;;;;;;;;;;;16.60;99.90;;;;;;5045811;28;19925;-62
2021/07/08 00:49:36;;;;;;;;;;;16.60;99.90;;;;;;5049008;28;20474;-62
2021/07/08 00:52:30;;;;;;;;;;;16.60;99.90;;;;;;5047749;28;19932;-62
2021/07/08 00:55:19;;;;;;;;;;;16.60;99.90;;;;;;5051243;28;19980;-61
2021/07/08 00:58:09;;;;;;;;;;;16.60;99.90;;;;;;5036878;28;19929;-61
2021/07/08 01:01:02;;;;;;;;;;;16.50;99.90;;;;;;5032990;28;19980;-61
2021/07/08 01:03:51;;;;;;;;;;;16.60;99.90;;;;;;5049323;28;20007;-62
2021/07/08 01:06:44;;;;;;;;;;;16.50;99.90;;;;;;5045898;28;19952;-62
2021/07/08 01:09:33;;;;;;;;;;;16.50;99.90;;;;;;5044304;28;20050;-62
2021/07/08 01:12:22;;;;;;;;;;;16.50;99.90;;;;;;5041568;28;19935;-62
2021/07/08 01:15:12;;;;;;;;;;;16.60;99.90;;;;;;5045503;28;19995;-62
2021/07/08 01:18:02;;;;;;;;;;;16.50;99.90;;;;;;5047621;28;19936;-62
2021/07/08 01:20:51;;;;;;;;;;;16.40;99.90;;;;;;5051597;28;19929;-62
2021/07/08 01:23:41;;;;;;;;;;;16.40;99.90;;;;;;5050883;28;20316;-62
2021/07/08 01:26:30;;;;;;;;;;;16.40;99.90;;;;;;5050860;28;20389;-61
2021/07/08 01:29:19;;;;;;;;;;;16.50;99.90;;;;;;5051197;28;19936;-62
2021/07/08 01:32:07;;;;;;;;;;;16.50;99.90;;;;;;5045749;28;19931;-63
2021/07/08 01:34:56;;;;;;;;;;;16.60;99.90;;;;;;5051416;28;19928;-64
2021/07/08 01:37:45;;;;;;;;;;;16.60;99.90;;;;;;5047054;28;19961;-65
2021/07/08 01:40:36;;;;;;;;;;;16.60;99.90;;;;;;5047944;28;19990;-61
2021/07/08 01:43:24;;;;;;;;;;;16.50;99.90;;;;;;5048474;28;20364;-61
2021/07/08 01:46:39;;;;;;;;;;;16.50;99.90;;;;;;5032915;28;20350;-62
2021/07/08 01:49:28;;;;;;;;;;;16.50;99.90;;;;;;5030448;28;20011;-62
2021/07/08 01:52:16;;;;;;;;;;;16.50;99.90;;;;;;5031190;28;19929;-62
2021/07/08 01:55:30;;;;;;;;;;;16.50;99.90;;;;;;5027104;28;20271;-62
2021/07/08 01:58:21;;;;;;;;;;;16.50;99.90;;;;;;5028502;28;19925;-62
2021/07/08 02:01:10;;;;;;;;;;;16.50;99.90;;;;;;5027117;28;19932;-62
2021/07/08 02:03:59;;;;;;;;;;;16.50;99.90;;;;;;5033313;28;19925;-62
2021/07/08 02:06:47;;;;;;;;;;;16.50;99.90;;;;;;5038958;28;19936;-63
2021/07/08 02:09:36;;;;;;;;;;;16.50;99.90;;;;;;5045233;28;19953;-62
2021/07/08 02:12:25;;;;;;;;;;;16.50;99.90;;;;;;5033249;28;19932;-63
2021/07/08 02:15:16;;;;;;;;;;;16.50;99.90;;;;;;5029253;28;19932;-62
2021/07/08 02:18:04;;;;;;;;;;;16.50;99.90;;;;;;5035878;28;19932;-62
2021/07/08 02:20:53;;;;;;;;;;;16.60;99.90;;;;;;5032475;28;19968;-62
2021/07/08 02:23:41;;;;;;;;;;;16.60;99.90;;;;;;5032147;28;19933;-62
2021/07/08 02:26:29;;;;;;;;;;;16.60;99.90;;;;;;5035837;28;19975;-62
2021/07/08 02:29:18;;;;;;;;;;;16.60;99.90;;;;;;5033760;28;19999;-62
2021/07/08 02:32:11;;;;;;;;;;;16.60;99.90;;;;;;5035035;28;19925;-62
2021/07/08 02:35:00;;;;;;;;;;;16.60;99.90;;;;;;5042359;28;19962;-62
2021/07/08 02:37:51;;;;;;;;;;;16.70;99.90;;;;;;5039211;28;19929;-64
2021/07/08 02:40:40;;;;;;;;;;;16.70;99.90;;;;;;5032248;28;20322;-61
2021/07/08 02:46:42;;;;;;;;;;;16.70;99.90;;;;;;5037423;28;19951;-61
2021/07/08 02:49:32;;;;;;;;;;;16.70;99.90;;;;;;5051861;28;19925;-62
2021/07/08 02:55:33;;;;;;;;;;;16.70;99.90;;;;;;5052500;28;20268;-62
2021/07/08 02:58:21;;;;;;;;;;;16.70;99.90;;;;;;5050290;28;20421;-61
2021/07/08 03:01:10;;;;;;;;;;;16.70;99.90;;;;;;5050237;28;19924;-62
2021/07/08 03:03:59;;;;;;;;;;;16.60;99.90;;;;;;5058128;28;19932;-62
2021/07/08 03:06:50;;;;;;;;;;;16.70;99.90;;;;;;5050518;28;19925;-63
2021/07/08 03:09:38;;;;;;;;;;;16.70;99.90;;;;;;5054267;28;19929;-62
2021/07/08 03:12:27;;;;;;;;;;;16.70;99.90;;;;;;5052715;28;20381;-61
2021/07/08 03:15:16;;;;;;;;;;;16.70;99.90;;;;;;5049113;28;19933;-62
2021/07/08 03:18:05;;;;;;;;;;;16.70;99.90;;;;;;5057257;28;19925;-62
2021/07/08 03:20:53;;;;;;;;;;;16.70;99.90;;;;;;5054427;28;19932;-63
2021/07/08 03:23:43;;;;;;;;;;;16.70;99.90;;;;;;5056887;28;19925;-64
2021/07/08 03:26:31;;;;;;;;;;;16.70;99.90;;;;;;5054266;28;20396;-62
2021/07/08 03:29:20;;;;;;;;;;;16.70;99.90;;;;;;5059698;28;19929;-62
2021/07/08 03:32:12;;;;;;;;;;;16.70;99.90;;;;;;5038773;28;19925;-62
2021/07/08 03:35:01;;;;;;;;;;;16.60;99.90;;;;;;5020565;28;20300;-63
2021/07/08 03:37:51;;;;;;;;;;;16.60;99.90;;;;;;5035762;28;20067;-62
2021/07/08 03:40:42;;;;;;;;;;;16.60;99.90;;;;;;5033758;28;19932;-62
2021/07/08 03:43:55;;;;;;;;;;;16.60;99.90;;;;;;5037302;28;20405;-61
2021/07/08 03:46:44;;;;;;;;;;;16.60;99.90;;;;;;5027370;28;19933;-62
2021/07/08 03:49:33;;;;;;;;;;;16.60;99.90;;;;;;5026677;28;20389;-62
2021/07/08 03:55:35;;;;;;;;;;;16.60;99.90;;;;;;5030211;28;19925;-62
2021/07/08 03:58:25;;;;;;;;;;;16.70;99.90;;;;;;5030927;28;19929;-61
2021/07/08 04:01:14;;;;;;;;;;;16.70;99.90;;;;;;5027273;28;20391;-61
2021/07/08 04:04:03;;;;;;;;;;;16.60;99.90;;;;;;5031281;28;19932;-61
2021/07/08 04:06:54;;;;;;;;;;;16.70;99.90;;;;;;5031161;28;19925;-62
2021/07/08 04:09:43;;;;;;;;;;;16.70;99.90;;;;;;5029294;28;19979;-62
2021/07/08 04:12:31;;;;;;;;;;;16.70;99.90;;;;;;5036024;28;19925;-62
2021/07/08 04:15:21;;;;;;;;;;;16.70;99.90;;;;;;5033856;28;19925;-62
2021/07/08 04:18:10;;;;;;;;;;;16.70;99.90;;;;;;5050725;28;19925;-61
2021/07/08 04:20:59;;;;;;;;;;;16.70;99.90;;;;;;5056454;28;19928;-61
2021/07/08 04:23:47;;;;;;;;;;;16.60;99.90;;;;;;5060638;28;19925;-62
2021/07/08 04:26:36;;;;;;;;;;;16.60;99.90;;;;;;5063778;28;19931;-61
2021/07/08 04:29:27;;;;;;;;;;;16.60;99.90;;;;;;5053461;28;20395;-60
2021/07/08 04:32:17;;;;;;;;;;;16.70;99.90;;;;;;5025755;28;19932;-61
2021/07/08 04:35:06;;;;;;;;;;;16.80;99.90;;;;;;5027350;28;20265;-61
2021/07/08 04:37:55;;;;;;;;;;;16.80;99.90;;;;;;5028358;28;19931;-61
2021/07/08 04:40:44;;;;;;;;;;;16.80;99.90;;;;;;5031070;28;19932;-61
2021/07/08 04:43:59;;;;;;;;;;;16.80;99.90;;;;;;5034672;28;20063;-61
2021/07/08 04:46:48;;;;;;;;;;;16.70;99.90;;;;;;5045340;28;20369;-61
2021/07/08 04:49:38;;;;;;;;;;;16.70;99.90;;;;;;5049746;28;19925;-60
2021/07/08 04:52:30;;;;;;;;;;;16.70;99.90;;;;;;5050493;28;20388;-61
2021/07/08 04:55:21;;;;;;;;;;;16.70;99.90;;;;;;5052842;28;20365;-61
2021/07/08 04:58:09;;;;;;;;;;;16.70;99.90;;;;;;5052845;28;19925;-61
2021/07/08 05:00:58;;;;;;;;;;;16.70;99.90;;;;;;5061413;28;19939;-61
2021/07/08 05:03:47;;;;;;;;;;;16.70;99.90;;;;;;5061661;28;19983;-61
2021/07/08 05:06:37;;;;;;;;;;;16.80;99.90;;;;;;5046647;28;20011;-61
2021/07/08 05:09:25;;;;;;;;;;;16.80;99.90;;;;;;5052818;28;19925;-61
2021/07/08 05:12:14;;;;;;;;;;;16.70;99.90;;;;;;5047926;28;20155;-64
2021/07/08 05:15:03;;;;;;;;;;;16.70;99.90;;;;;;5047482;28;19925;-61
2021/07/08 05:17:54;;;;;;;;;;;16.70;99.90;;;;;;5049287;28;20357;-61
2021/07/08 05:20:44;;;;;;;;;;;16.80;99.90;;;;;;5052583;28;20277;-64
2021/07/08 05:23:34;;;;;;;;;;;16.80;99.90;;;;;;5051901;28;20704;-61
2021/07/08 05:26:25;;;;;;;;;;;16.80;99.90;;;;;;5051452;28;20434;-61
2021/07/08 05:29:14;;;;;;;;;;;16.80;99.90;;;;;;5051105;28;19950;-61
2021/07/08 05:35:16;;;;;;;;;;;16.80;99.90;;;;;;5050171;28;20389;-61
2021/07/08 05:38:06;;;;;;;;;;;16.80;99.90;;;;;;5056322;28;19947;-61
2021/07/08 05:40:55;;;;;;;;;;;16.70;99.90;;;;;;5046232;28;19925;-61
2021/07/08 05:43:44;;;;;;;;;;;16.70;99.90;;;;;;5056907;28;20419;-61
2021/07/08 05:46:33;;;;;;;;;;;16.80;99.90;;;;;;5042126;28;20018;-61
2021/07/08 05:49:22;;;;;;;;;;;16.90;99.90;;;;;;5039033;28;19929;-61
2021/07/08 05:52:10;;;;;;;;;;;16.90;99.90;;;;;;5040142;28;20321;-61
2021/07/08 05:54:59;;;;;;;;;;;16.80;99.90;;;;;;5034075;28;20054;-61
2021/07/08 05:57:49;;;;;;;;;;;16.70;99.90;;;;;;5036218;28;19929;-61
2021/07/08 06:00:38;;;;;;;;;;;16.80;99.90;;;;;;5032739;28;19932;-61
2021/07/08 06:03:27;;;;;;;;;;;16.80;99.90;;;;;;5035431;28;19925;-61
2021/07/08 06:06:16;;;;;;;;;;;16.80;99.90;;;;;;5037994;28;19929;-60
2021/07/08 06:09:04;;;;;;;;;;;16.90;99.90;;;;;;5035834;28;19925;-61
2021/07/08 06:15:07;;;;;;;;;;;16.90;99.90;;;;;;5029129;28;19936;-61
2021/07/08 06:17:56;;;;;;;;;;;16.90;99.90;;;;;;5036461;28;19925;-61
2021/07/08 06:20:44;;;;;;;;;;;16.90;99.90;;;;;;5035345;28;19925;-62
2021/07/08 06:23:33;;;;;;;;;;;16.80;99.90;;;;;;5034750;28;19925;-62
2021/07/08 06:26:21;;;;;;;;;;;16.80;99.90;;;;;;5026826;28;19925;-62
2021/07/08 06:29:10;;;;;;;;;;;16.80;99.90;;;;;;5033432;28;19971;-62
2021/07/08 06:35:16;;;;;;;;;;;16.80;99.90;;;;;;5031980;28;19929;-61
2021/07/08 06:38:06;;;;;;;;;;;16.90;99.90;;;;;;5035276;28;19933;-62
2021/07/08 06:40:54;;;;;;;;;;;16.80;99.90;;;;;;5034757;28;20404;-62
2021/07/08 06:43:44;;;;;;;;;;;16.90;99.90;;;;;;5033024;28;20531;-62
2021/07/08 06:46:32;;;;;;;;;;;16.90;99.90;;;;;;5028334;28;19925;-61
2021/07/08 06:49:23;;;;;;;;;;;16.80;99.90;;;;;;5030710;28;19925;-61
2021/07/08 06:52:11;;;;;;;;;;;16.80;99.90;;;;;;5028813;28;19956;-61
2021/07/08 06:55:01;;;;;;;;;;;16.70;99.90;;;;;;5034347;28;19955;-62
2021/07/08 06:57:53;;;;;;;;;;;16.70;99.90;;;;;;5034174;28;19947;-62
2021/07/08 07:00:43;;;;;;;;;;;16.70;99.90;;;;;;5029815;28;19979;-61
2021/07/08 07:03:34;;;;;;;;;;;16.70;99.90;;;;;;5043432;28;19958;-61
2021/07/08 07:06:24;;;;;;;;;;;16.70;99.90;;;;;;5039164;28;20054;-61
2021/07/08 07:09:13;;;;;;;;;;;16.70;99.90;;;;;;5046837;28;19947;-62
2021/07/08 07:12:26;;;;;;;;;;;16.70;99.90;;;;;;5047703;28;19943;-62
2021/07/08 07:15:15;;;;;;;;;;;16.80;99.90;;;;;;5026619;28;19971;-61
2021/07/08 07:18:05;;;;;;;;;;;16.90;99.90;;;;;;5054561;28;19951;-60
2021/07/08 07:20:53;;;;;;;;;;;17.00;99.90;;;;;;5063258;28;19924;-61
2021/07/08 07:23:43;;;;;;;;;;;17.00;99.90;;;;;;5057678;28;19933;-60
2021/07/08 07:26:32;;;;;;;;;;;17.00;99.90;;;;;;5065612;28;20332;-61
2021/07/08 07:29:22;;;;;;;;;;;17.00;99.90;;;;;;5056530;28;19925;-61
2021/07/08 07:32:11;;;;;;;;;;;17.10;99.90;;;;;;5049308;28;20026;-60
2021/07/08 07:35:00;;;;;;;;;;;17.20;99.90;;;;;;5064235;28;20048;-59
2021/07/08 07:37:50;;;;;;;;;;;17.20;99.90;;;;;;5055497;28;20395;-60
2021/07/08 07:40:40;;;;;;;;;;;17.10;99.90;;;;;;5053561;28;19928;-60
2021/07/08 07:46:42;;;;;;;;;;;17.20;99.90;;;;;;5055602;28;19924;-61
2021/07/08 07:49:31;;;;;;;;;;;17.30;99.90;;;;;;5059749;28;19925;-60
2021/07/08 07:52:19;;;;;;;;;;;17.30;99.90;;;;;;5055499;28;19928;-60
2021/07/08 07:55:35;;;;;;;;;;;17.30;99.90;;;;;;5052164;28;20223;-60
2021/07/08 07:58:27;;;;;;;;;;;17.30;99.90;;;;;;5055801;28;20395;-60
2021/07/08 08:01:16;;;;;;;;;;;17.30;99.90;;;;;;5049239;28;20357;-60
2021/07/08 08:04:05;;;;;;;;;;;17.30;99.90;;;;;;5060890;28;19935;-60
2021/07/08 08:10:01;;;;;;;;;;;17.40;99.90;;;;;;5055050;28;20322;-60
2021/07/08 08:12:49;;;;;;;;;;;17.60;99.90;;;;;;5054953;28;19928;-60
2021/07/08 08:15:40;;;;;;;;;;;17.90;99.90;;;;;;5053513;28;19929;-60
2021/07/08 08:18:29;;;;;;;;;;;18.50;99.90;;;;;;5048970;28;19925;-59
2021/07/08 08:21:18;;;;;;;;;;;18.70;99.90;;;;;;5049895;28;19987;-59
2021/07/08 08:24:06;;;;;;;;;;;18.80;99.90;;;;;;5053058;28;20403;-59
2021/07/08 08:26:55;;;;;;;;;;;18.70;99.90;;;;;;5056338;28;20345;-60
2021/07/08 08:29:44;;;;;;;;;;;18.80;99.90;;;;;;5056602;28;20411;-60
2021/07/08 08:32:34;;;;;;;;;;;18.80;99.90;;;;;;5053873;28;19971;-60
2021/07/08 08:35:23;;;;;;;;;;;18.60;99.90;;;;;;5062163;28;20023;-60
2021/07/08 08:38:12;;;;;;;;;;;18.50;99.90;;;;;;5038343;28;20504;-60
2021/07/08 08:41:00;;;;;;;;;;;19.00;99.90;;;;;;5062606;28;19932;-60
2021/07/08 08:43:48;;;;;;;;;;;20.10;99.90;;;;;;5062267;28;19928;-62
2021/07/08 08:46:37;;;;;;;;;;;21.10;99.90;;;;;;5050457;28;19991;-60
2021/07/08 08:49:27;;;;;;;;;;;21.40;99.90;;;;;;5065046;28;19936;-60
2021/07/08 08:52:40;;;;;;;;;;;21.10;99.90;;;;;;5055209;28;19936;-60
2021/07/08 08:55:29;;;;;;;;;;;20.30;99.90;;;;;;5056575;28;19925;-60
2021/07/08 08:58:19;;;;;;;;;;;19.80;99.90;;;;;;5038271;28;19984;-60
2021/07/08 09:01:11;;;;;;;;;;;19.60;99.90;;;;;;5051971;28;19925;-59
2021/07/08 09:04:02;;;;;;;;;;;19.20;99.90;;;;;;5056334;28;19928;-59
2021/07/08 09:06:51;;;;;;;;;;;18.90;99.90;;;;;;5052068;28;19929;-59
2021/07/08 09:09:40;;;;;;;;;;;18.60;99.90;;;;;;5056294;28;19956;-60
2021/07/08 09:12:28;;;;;;;;;;;18.70;99.90;;;;;;5060968;28;19943;-60
2021/07/08 09:15:22;;;;;;;;;;;18.60;99.90;;;;;;5047326;28;19932;-60
2021/07/08 09:18:15;;;;;;;;;;;18.60;99.90;;;;;;5068659;28;19954;-60
2021/07/08 09:21:14;;;;;;;;;;;18.70;99.90;;;;;;5062806;28;19939;-60
2021/07/08 09:24:08;;;;;;;;;;;18.80;99.90;;;;;;5066717;28;20001;-60
2021/07/08 09:26:58;;;;;;;;;;;19.50;99.90;;;;;;5067494;28;20000;-60
2021/07/08 09:29:49;;;;;;;;;;;20.80;99.90;;;;;;5072107;28;19929;-60
2021/07/08 09:32:38;;;;;;;;;;;23.60;99.90;;;;;;5080881;28;19932;-60
2021/07/08 09:35:32;;;;;;;;;;;27.90;99.90;;;;;;5065891;28;19925;-60
2021/07/08 09:38:24;;;;;;;;;;;29.30;99.90;;;;;;5062140;28;19924;-60
2021/07/08 09:41:16;;;;;;;;;;;29.00;99.90;;;;;;5051077;28;20011;-60
2021/07/08 09:44:18;;;;;;;;;;;27.60;99.90;;;;;;5062427;28;19958;-61
2021/07/08 09:47:19;;;;;;;;;;;26.20;99.90;;;;;;5056790;28;19935;-60
2021/07/08 09:50:08;;;;;;;;;;;24.40;99.90;;;;;;5063025;28;20013;-60
2021/07/08 09:53:00;;;;;;;;;;;25.00;99.90;;;;;;5059714;28;19970;-60
2021/07/08 09:55:57;;;;;;;;;;;23.90;99.90;;;;;;5063049;28;19946;-60
2021/07/08 09:58:52;;;;;;;;;;;23.60;99.90;;;;;;5064774;28;19933;-61
2021/07/08 10:01:42;;;;;;;;;;;23.40;99.90;;;;;;5061570;28;19966;-60
2021/07/08 10:04:31;;;;;;;;;;;22.70;99.90;;;;;;5064598;28;19931;-60
2021/07/08 10:07:19;;;;;;;;;;;22.50;99.90;;;;;;5068417;28;19951;-60
2021/07/08 10:10:08;;;;;;;;;;;23.20;99.90;;;;;;5055928;28;19932;-60
2021/07/08 10:12:58;;;;;;;;;;;23.10;99.90;;;;;;5066811;28;19962;-60
2021/07/08 10:15:48;;;;;;;;;;;23.20;99.90;;;;;;5058419;28;19925;-60
2021/07/08 10:18:38;;;;;;;;;;;23.20;99.90;;;;;;5067194;28;19930;-61
2021/07/08 10:21:29;;;;;;;;;;;24.10;99.90;;;;;;5068845;28;20020;-61
2021/07/08 10:24:19;;;;;;;;;;;24.10;99.90;;;;;;5053180;28;19942;-61
2021/07/08 10:27:08;;;;;;;;;;;23.50;99.90;;;;;;5055140;28;19946;-60
2021/07/08 10:30:01;;;;;;;;;;;23.20;99.90;;;;;;5066948;28;19930;-60
2021/07/08 10:32:58;;;;;;;;;;;23.10;99.90;;;;;;5062517;28;19995;-60
2021/07/08 10:35:48;;;;;;;;;;;22.40;99.90;;;;;;5068307;28;19924;-60
2021/07/08 10:38:37;;;;;;;;;;;22.30;99.90;;;;;;5066598;28;19931;-61
2021/07/08 10:41:45;;;;;;;;;;;21.80;99.90;;;;;;5056638;28;19939;-60
2021/07/08 10:44:54;;;;;;;;;;;21.90;99.90;;;;;;5051558;28;20288;-60
2021/07/08 10:47:43;;;;;;;;;;;22.10;99.90;;;;;;5037913;28;19925;-60
2021/07/08 10:50:41;;;;;;;;;;;22.40;99.90;;;;;;5037644;28;19925;-60
2021/07/08 10:53:32;;;;;;;;;;;21.90;99.90;;;;;;5032642;28;20027;-60
2021/07/08 10:56:21;;;;;;;;;;;22.30;99.90;;;;;;5032858;28;19924;-60
2021/07/08 10:59:12;;;;;;;;;;;21.80;99.90;;;;;;5038545;28;20407;-60
2021/07/08 11:02:01;;;;;;;;;;;21.90;99.90;;;;;;5031777;28;20347;-60
2021/07/08 11:04:50;;;;;;;;;;;21.60;99.90;;;;;;5046329;28;20879;-60
2021/07/08 11:07:46;;;;;;;;;;;21.30;99.90;;;;;;5049182;28;19947;-60
2021/07/08 11:10:36;;;;;;;;;;;21.10;99.90;;;;;;5033635;28;19940;-60
2021/07/08 11:13:30;;;;;;;;;;;20.90;99.90;;;;;;5036105;28;19936;-59
2021/07/08 11:16:33;;;;;;;;;;;20.90;99.90;;;;;;5033127;28;19928;-59
2021/07/08 11:19:32;;;;;;;;;;;20.90;99.90;;;;;;5046857;28;20025;-59
2021/07/08 11:22:28;;;;;;;;;;;20.90;99.90;;;;;;5042890;28;19941;-59
2021/07/08 11:25:19;;;;;;;;;;;20.70;99.90;;;;;;5046129;28;19964;-59
2021/07/08 11:28:23;;;;;;;;;;;20.90;99.90;;;;;;5044348;28;19936;-59
2021/07/08 11:31:12;;;;;;;;;;;21.00;99.90;;;;;;5037060;28;20482;-60
2021/07/08 11:34:01;;;;;;;;;;;20.90;99.90;;;;;;5034706;28;19939;-59
2021/07/08 11:36:50;;;;;;;;;;;20.70;99.90;;;;;;5034862;28;20427;-60
2021/07/08 11:39:40;;;;;;;;;;;20.70;99.90;;;;;;5022336;28;19929;-60
2021/07/08 11:42:32;;;;;;;;;;;20.80;99.90;;;;;;5036826;28;19933;-60
2021/07/08 11:45:21;;;;;;;;;;;20.70;99.90;;;;;;5025232;28;20383;-59
2021/07/08 11:48:10;;;;;;;;;;;20.50;99.90;;;;;;5033442;28;19978;-60
2021/07/08 11:50:59;;;;;;;;;;;20.50;99.90;;;;;;5040726;28;19929;-61
2021/07/08 11:53:50;;;;;;;;;;;20.70;99.90;;;;;;5043329;28;20395;-60
2021/07/08 11:56:40;;;;;;;;;;;20.60;99.90;;;;;;5035206;28;20054;-61
2021/07/08 11:59:30;;;;;;;;;;;20.40;99.90;;;;;;5034986;28;19932;-60
2021/07/08 12:02:35;;;;;;;;;;;20.40;99.90;;;;;;5028036;28;20380;-60
2021/07/08 12:05:24;;;;;;;;;;;20.50;99.90;;;;;;5036940;28;20388;-60
2021/07/08 12:08:23;;;;;;;;;;;20.60;99.90;;;;;;5035691;28;20052;-60
2021/07/08 12:11:14;;;;;;;;;;;20.70;99.90;;;;;;5029445;28;19933;-59
2021/07/08 12:14:07;;;;;;;;;;;20.90;99.90;;;;;;5025461;28;19932;-60
2021/07/08 12:16:57;;;;;;;;;;;20.60;99.90;;;;;;5031652;28;19935;-60
2021/07/08 12:19:46;;;;;;;;;;;20.40;99.90;;;;;;5037683;28;19926;-60
2021/07/08 12:22:34;;;;;;;;;;;20.20;99.90;;;;;;5036929;28;20080;-60
2021/07/08 12:25:23;;;;;;;;;;;20.10;99.90;;;;;;5044394;28;19924;-60
2021/07/08 12:28:21;;;;;;;;;;;20.20;99.90;;;;;;5053730;28;19969;-59
2021/07/08 12:31:10;;;;;;;;;;;20.50;99.90;;;;;;5032393;28;19982;-60
2021/07/08 12:34:02;;;;;;;;;;;20.40;99.90;;;;;;5037396;28;19971;-60
2021/07/08 12:36:51;;;;;;;;;;;20.20;99.90;;;;;;5038273;28;20421;-60
2021/07/08 12:39:40;;;;;;;;;;;20.20;99.90;;;;;;5038448;28;19959;-60
2021/07/08 12:42:29;;;;;;;;;;;20.10;99.90;;;;;;5033048;28;19943;-60
2021/07/08 12:45:19;;;;;;;;;;;20.00;99.90;;;;;;5030422;28;19929;-60
2021/07/08 12:48:08;;;;;;;;;;;20.00;99.90;;;;;;5044551;28;19926;-60
2021/07/08 12:50:59;;;;;;;;;;;20.10;99.90;;;;;;5030241;28;19932;-60
2021/07/08 12:53:49;;;;;;;;;;;20.10;99.90;;;;;;5043820;28;19959;-60
2021/07/08 12:56:38;;;;;;;;;;;20.00;99.90;;;;;;5028467;28;20408;-60
2021/07/08 12:59:26;;;;;;;;;;;20.00;99.90;;;;;;5029951;28;19998;-59
2021/07/08 13:02:20;;;;;;;;;;;20.10;99.90;;;;;;5032437;28;20161;-60
2021/07/08 13:05:09;;;;;;;;;;;20.20;99.90;;;;;;5033800;28;19944;-60
2021/07/08 13:08:00;;;;;;;;;;;20.40;99.90;;;;;;5030678;28;19936;-60
2021/07/08 13:10:49;;;;;;;;;;;20.40;99.90;;;;;;5036046;28;20368;-60
2021/07/08 13:13:38;;;;;;;;;;;20.30;99.90;;;;;;5036128;28;19955;-60
2021/07/08 13:16:28;;;;;;;;;;;20.20;99.90;;;;;;5031455;28;20401;-61
2021/07/08 13:19:16;;;;;;;;;;;20.20;99.90;;;;;;5044605;28;19959;-60
2021/07/08 13:22:13;;;;;;;;;;;20.00;99.90;;;;;;5028068;28;20013;-60
2021/07/08 13:25:14;;;;;;;;;;;20.10;99.90;;;;;;5033755;28;19968;-60
2021/07/08 13:28:03;;;;;;;;;;;20.10;99.90;;;;;;5036333;28;19929;-60
2021/07/08 13:30:59;;;;;;;;;;;20.00;99.90;;;;;;5034972;28;19962;-61
2021/07/08 13:33:50;;;;;;;;;;;19.80;99.90;;;;;;5042050;28;19931;-60
2021/07/08 13:36:44;;;;;;;;;;;19.60;99.90;;;;;;5035288;28;19968;-60
2021/07/08 13:39:32;;;;;;;;;;;19.50;99.90;;;;;;5037605;28;19956;-60
2021/07/08 13:42:27;;;;;;;;;;;19.40;99.90;;;;;;5040586;28;19993;-60
2021/07/08 13:45:36;;;;;;;;;;;19.40;99.90;;;;;;5030415;28;19932;-60
2021/07/08 13:48:25;;;;;;;;;;;19.40;99.90;;;;;;5049630;28;19952;-60
2021/07/08 13:51:14;;;;;;;;;;;19.40;99.90;;;;;;5049841;28;20054;-60
2021/07/08 13:54:32;;;;;;;;;;;19.40;99.90;;;;;;5052880;28;19990;-61
2021/07/08 13:57:21;;;;;;;;;;;19.40;99.90;;;;;;5058570;28;20051;-59
2021/07/08 14:00:13;;;;;;;;;;;19.50;99.90;;;;;;5050786;28;20301;-60
2021/07/08 14:03:01;;;;;;;;;;;19.50;99.90;;;;;;5052775;28;19980;-60
2021/07/08 14:05:50;;;;;;;;;;;19.50;99.90;;;;;;5055724;28;19943;-60
2021/07/08 14:09:04;;;;;;;;;;;19.50;99.90;;;;;;5062688;28;19932;-60
2021/07/08 14:12:17;;;;;;;;;;;19.50;99.90;;;;;;5062535;28;20271;-60
2021/07/08 14:15:06;;;;;;;;;;;19.70;99.90;;;;;;5054095;28;19950;-60
2021/07/08 14:17:56;;;;;;;;;;;19.80;99.90;;;;;;5053892;28;19955;-60
2021/07/08 14:20:45;;;;;;;;;;;19.90;99.90;;;;;;5051372;28;19989;-60
2021/07/08 14:23:33;;;;;;;;;;;19.80;99.90;;;;;;5055148;28;19925;-60
2021/07/08 14:26:25;;;;;;;;;;;19.70;99.90;;;;;;5056321;28;19990;-60
2021/07/08 14:29:13;;;;;;;;;;;19.60;99.90;;;;;;5060915;28;19984;-60
2021/07/08 14:32:02;;;;;;;;;;;19.60;99.90;;;;;;5048807;28;19958;-62
2021/07/08 14:34:52;;;;;;;;;;;19.70;99.90;;;;;;5058278;28;19962;-60
2021/07/08 14:37:41;;;;;;;;;;;19.80;99.90;;;;;;5054913;28;20388;-60
2021/07/08 14:40:29;;;;;;;;;;;19.90;99.90;;;;;;5066603;28;19969;-60
2021/07/08 14:43:26;;;;;;;;;;;19.80;99.90;;;;;;5048095;28;19925;-60
2021/07/08 14:46:16;;;;;;;;;;;19.60;99.90;;;;;;5049995;28;19924;-60
2021/07/08 14:49:05;;;;;;;;;;;19.40;99.90;;;;;;5053430;28;20347;-60
2021/07/08 14:51:56;;;;;;;;;;;19.40;99.90;;;;;;5054000;28;19954;-61
2021/07/08 14:54:44;;;;;;;;;;;19.50;99.90;;;;;;5061820;28;19947;-61
2021/07/08 14:57:33;;;;;;;;;;;19.60;99.90;;;;;;5079915;28;19929;-62
2021/07/08 15:00:22;;;;;;;;;;;19.90;99.90;;;;;;5077742;28;20005;-62
2021/07/08 15:03:17;;;;;;;;;;;20.20;99.90;;;;;;5069933;28;19925;-61
2021/07/08 15:06:06;;;;;;;;;;;20.30;99.90;;;;;;5066366;28;19929;-61
2021/07/08 15:08:57;;;;;;;;;;;20.90;99.90;;;;;;5062222;28;19932;-62
2021/07/08 15:12:11;;;;;;;;;;;21.00;99.90;;;;;;5047200;28;19942;-62
2021/07/08 15:15:00;;;;;;;;;;;21.20;99.90;;;;;;5079744;28;19966;-63
2021/07/08 15:17:49;;;;;;;;;;;21.10;99.90;;;;;;5062458;28;19951;-63
2021/07/08 15:20:37;;;;;;;;;;;21.30;99.90;;;;;;5078426;28;19963;-62
2021/07/08 15:23:26;;;;;;;;;;;21.30;99.90;;;;;;5058221;28;19962;-62
2021/07/08 15:26:16;;;;;;;;;;;21.10;99.90;;;;;;5064832;28;19930;-62
2021/07/08 15:29:04;;;;;;;;;;;21.00;99.90;;;;;;5056360;28;19924;-62
2021/07/08 15:31:53;;;;;;;;;;;20.90;99.90;;;;;;5054099;28;19947;-62
2021/07/08 15:34:46;;;;;;;;;;;20.70;99.90;;;;;;5061085;28;20039;-61
2021/07/08 15:37:59;;;;;;;;;;;20.70;99.90;;;;;;5065947;28;20399;-62
2021/07/08 15:40:50;;;;;;;;;;;20.70;99.90;;;;;;5062036;28;20042;-62
2021/07/08 15:43:44;;;;;;;;;;;21.00;99.90;;;;;;5051155;28;19928;-62
2021/07/08 15:46:40;;;;;;;;;;;21.20;99.90;;;;;;5049288;28;19979;-61
2021/07/08 15:49:29;;;;;;;;;;;21.20;99.90;;;;;;5035628;28;20026;-61
2021/07/08 15:52:31;;;;;;;;;;;21.30;99.90;;;;;;5049966;28;19958;-61
2021/07/08 15:55:19;;;;;;;;;;;21.40;99.90;;;;;;5048394;28;19939;-62
2021/07/08 15:58:08;;;;;;;;;;;21.10;99.90;;;;;;5048842;28;19932;-62
2021/07/08 16:00:59;;;;;;;;;;;21.00;99.90;;;;;;5040053;28;20000;-62
2021/07/08 16:03:48;;;;;;;;;;;21.30;99.90;;;;;;5029895;28;19932;-61
2021/07/08 16:06:40;;;;;;;;;;;21.00;99.90;;;;;;5046461;28;20693;-62
2021/07/08 16:09:29;;;;;;;;;;;21.00;99.90;;;;;;5033864;28;20030;-64
2021/07/08 16:12:32;;;;;;;;;;;21.00;99.90;;;;;;5042018;28;20334;-62
2021/07/08 16:15:21;;;;;;;;;;;21.10;99.90;;;;;;5040407;28;19929;-61
2021/07/08 16:18:28;;;;;;;;;;;21.40;99.90;;;;;;5035795;28;19951;-61
2021/07/08 16:21:17;;;;;;;;;;;21.60;99.90;;;;;;5030913;28;19925;-61
2021/07/08 16:24:07;;;;;;;;;;;21.50;99.90;;;;;;5042991;28;19924;-61
2021/07/08 16:26:56;;;;;;;;;;;21.70;99.90;;;;;;5039591;28;19926;-61
2021/07/08 16:29:44;;;;;;;;;;;21.80;99.90;;;;;;5041434;28;21401;-61
2021/07/08 16:32:34;;;;;;;;;;;21.70;99.90;;;;;;5038119;28;19983;-60
2021/07/08 16:35:26;;;;;;;;;;;21.80;99.90;;;;;;5044987;28;19924;-60
2021/07/08 16:38:15;;;;;;;;;;;21.90;99.90;;;;;;5050312;28;19932;-61
2021/07/08 16:41:04;;;;;;;;;;;22.10;99.90;;;;;;5044087;28;19925;-61
2021/07/08 16:43:55;;;;;;;;;;;22.30;99.90;;;;;;5019412;28;19925;-62
2021/07/08 16:46:44;;;;;;;;;;;21.80;99.90;;;;;;5038104;28;19932;-61
2021/07/08 16:49:33;;;;;;;;;;;21.60;99.90;;;;;;5048785;28;19940;-61
2021/07/08 16:52:47;;;;;;;;;;;21.50;99.90;;;;;;5058600;28;19929;-61
2021/07/08 16:55:37;;;;;;;;;;;21.40;99.90;;;;;;5052454;28;19935;-61
2021/07/08 16:58:27;;;;;;;;;;;21.10;99.90;;;;;;5056410;28;19964;-60
2021/07/08 17:01:16;;;;;;;;;;;20.90;99.90;;;;;;5050463;28;19947;-61